sensor_id;sensor_type;location;lat;lon;timestamp;noise_LAeq;noise_LA_min;noise_LA_max;noise_LA01;noise_LA95
46749;Laerm;33775;47.992;11.864;2023-07-24T00:00:23;36.80;29.92;39.58;;
46749;Laerm;33775;47.992;11.864;2023-07-24T00:02:49;36.78;31.68;39.58;;
46749;Laerm;33775;47.992;11.864;2023-07-24T00:05:14;36.79;31.68;39.57;;
46749;Laerm;33775;47.992;11.864;2023-07-24T00:07:39;36.79;30.89;39.81;;
46749;Laerm;33775;47.992;11.864;2023-07-24T00:10:04;36.78;30.89;39.35;;
46749;Laerm;33775;47.992;11.864;2023-07-24T00:12:30;36.77;29.92;39.46;;
46749;Laerm;33775;47.992;11.864;2023-07-24T00:14:55;36.81;31.68;39.92;;
46749;Laerm;33775;47.992;11.864;2023-07-24T00:17:20;36.83;29.92;39.21;;
46749;Laerm;33775;47.992;11.864;2023-07-24T00:19:45;36.87;30.89;39.46;;
46749;Laerm;33775;47.992;11.864;2023-07-24T00:22:11;36.90;30.54;40.23;;
46749;Laerm;33775;47.992;11.864;2023-07-24T00:24:36;36.95;29.92;39.92;;
46749;Laerm;33775;47.992;11.864;2023-07-24T00:27:01;37.01;31.68;39.81;;
46749;Laerm;33775;47.992;11.864;2023-07-24T00:29:27;37.13;29.92;39.58;;
46749;Laerm;33775;47.992;11.864;2023-07-24T00:31:52;37.32;32.35;39.70;;
46749;Laerm;33775;47.992;11.864;2023-07-24T00:34:18;37.30;32.35;39.70;;
46749;Laerm;33775;47.992;11.864;2023-07-24T00:36:43;37.24;32.35;39.70;;
46749;Laerm;33775;47.992;11.864;2023-07-24T00:39:08;37.23;30.89;39.57;;
46749;Laerm;33775;47.992;11.864;2023-07-24T00:41:33;37.27;31.68;39.46;;
46749;Laerm;33775;47.992;11.864;2023-07-24T00:43:58;37.26;32.35;39.78;;
46749;Laerm;33775;47.992;11.864;2023-07-24T00:46:24;37.22;32.35;39.92;;
46749;Laerm;33775;47.992;11.864;2023-07-24T00:48:49;37.27;29.92;39.46;;
46749;Laerm;33775;47.992;11.864;2023-07-24T00:51:15;37.40;31.68;39.34;;
46749;Laerm;33775;47.992;11.864;2023-07-24T00:53:40;37.40;32.35;39.81;;
46749;Laerm;33775;47.992;11.864;2023-07-24T00:56:05;37.48;32.35;40.13;;
46749;Laerm;33775;47.992;11.864;2023-07-24T00:58:31;37.55;32.35;39.58;;
46749;Laerm;33775;47.992;11.864;2023-07-24T01:00:57;37.71;32.93;39.81;;
46749;Laerm;33775;47.992;11.864;2023-07-24T01:03:23;37.74;33.44;39.70;;
46749;Laerm;33775;47.992;11.864;2023-07-24T01:05:52;37.64;32.93;39.81;;
46749;Laerm;33775;47.992;11.864;2023-07-24T01:08:18;37.71;33.90;39.58;;
46749;Laerm;33775;47.992;11.864;2023-07-24T01:10:44;37.72;33.90;39.68;;
46749;Laerm;33775;47.992;11.864;2023-07-24T01:13:15;37.93;31.68;39.81;;
46749;Laerm;33775;47.992;11.864;2023-07-24T01:15:55;38.07;34.69;39.70;;
46749;Laerm;33775;47.992;11.864;2023-07-24T01:18:22;38.15;35.36;40.23;;
46749;Laerm;33775;47.992;11.864;2023-07-24T01:20:50;38.30;35.36;40.03;;
46749;Laerm;33775;47.992;11.864;2023-07-24T01:26:00;38.27;35.94;39.92;;
46749;Laerm;33775;47.992;11.864;2023-07-24T01:28:26;38.34;36.20;40.03;;
46749;Laerm;33775;47.992;11.864;2023-07-24T01:30:51;38.31;35.94;40.13;;
46749;Laerm;33775;47.992;11.864;2023-07-24T01:33:17;38.26;35.86;39.81;;
46749;Laerm;33775;47.992;11.864;2023-07-24T01:35:42;38.23;35.66;40.03;;
46749;Laerm;33775;47.992;11.864;2023-07-24T01:38:09;38.28;36.20;39.92;;
46749;Laerm;33775;47.992;11.864;2023-07-24T01:40:34;38.32;35.66;40.43;;
46749;Laerm;33775;47.992;11.864;2023-07-24T01:43:00;38.37;36.34;40.13;;
46749;Laerm;33775;47.992;11.864;2023-07-24T01:45:25;38.34;35.94;40.03;;
46749;Laerm;33775;47.992;11.864;2023-07-24T01:47:50;38.38;35.94;39.92;;
46749;Laerm;33775;47.992;11.864;2023-07-24T01:50:15;38.51;36.45;40.23;;
46749;Laerm;33775;47.992;11.864;2023-07-24T01:52:40;38.63;36.91;40.13;;
46749;Laerm;33775;47.992;11.864;2023-07-24T01:55:06;38.67;36.45;40.23;;
46749;Laerm;33775;47.992;11.864;2023-07-24T01:57:31;38.63;36.20;40.43;;
46749;Laerm;33775;47.992;11.864;2023-07-24T01:59:56;38.61;36.20;40.03;;
46749;Laerm;33775;47.992;11.864;2023-07-24T02:02:21;38.59;36.45;40.03;;
46749;Laerm;33775;47.992;11.864;2023-07-24T02:04:47;38.67;36.69;40.23;;
46749;Laerm;33775;47.992;11.864;2023-07-24T02:07:12;38.69;36.91;40.23;;
46749;Laerm;33775;47.992;11.864;2023-07-24T02:09:37;38.68;36.69;40.33;;
46749;Laerm;33775;47.992;11.864;2023-07-24T02:12:02;38.63;36.69;40.23;;
46749;Laerm;33775;47.992;11.864;2023-07-24T02:14:28;38.52;36.45;40.13;;
46749;Laerm;33775;47.992;11.864;2023-07-24T02:16:53;38.48;36.45;40.03;;
46749;Laerm;33775;47.992;11.864;2023-07-24T02:19:18;38.63;36.69;40.43;;
46749;Laerm;33775;47.992;11.864;2023-07-24T02:21:43;38.82;36.91;40.43;;
46749;Laerm;33775;47.992;11.864;2023-07-24T02:24:08;38.87;36.91;40.33;;
46749;Laerm;33775;47.992;11.864;2023-07-24T02:26:34;38.77;36.69;40.23;;
46749;Laerm;33775;47.992;11.864;2023-07-24T02:28:59;38.75;36.69;40.23;;
46749;Laerm;33775;47.992;11.864;2023-07-24T02:31:24;38.79;36.45;40.33;;
46749;Laerm;33775;47.992;11.864;2023-07-24T02:33:49;38.81;36.69;40.33;;
46749;Laerm;33775;47.992;11.864;2023-07-24T02:36:14;38.85;36.69;40.13;;
46749;Laerm;33775;47.992;11.864;2023-07-24T02:38:39;38.81;36.69;40.43;;
46749;Laerm;33775;47.992;11.864;2023-07-24T02:41:05;38.76;36.91;40.23;;
46749;Laerm;33775;47.992;11.864;2023-07-24T02:43:30;38.67;36.69;40.23;;
46749;Laerm;33775;47.992;11.864;2023-07-24T02:45:59;38.56;36.45;40.03;;
46749;Laerm;33775;47.992;11.864;2023-07-24T02:48:25;38.55;36.69;40.23;;
46749;Laerm;33775;47.992;11.864;2023-07-24T02:50:51;38.44;36.45;40.13;;
46749;Laerm;33775;47.992;11.864;2023-07-24T02:53:16;38.36;36.20;40.03;;
46749;Laerm;33775;47.992;11.864;2023-07-24T02:55:41;38.26;36.20;40.03;;
46749;Laerm;33775;47.992;11.864;2023-07-24T02:58:07;38.22;36.20;39.81;;
46749;Laerm;33775;47.992;11.864;2023-07-24T03:00:32;38.33;35.94;40.13;;
46749;Laerm;33775;47.992;11.864;2023-07-24T03:02:57;38.50;36.34;40.03;;
46749;Laerm;33775;47.992;11.864;2023-07-24T03:05:22;38.55;36.45;40.23;;
46749;Laerm;33775;47.992;11.864;2023-07-24T03:07:48;38.58;36.69;40.03;;
46749;Laerm;33775;47.992;11.864;2023-07-24T03:10:13;38.49;36.45;40.03;;
46749;Laerm;33775;47.992;11.864;2023-07-24T03:12:38;38.46;36.45;40.13;;
46749;Laerm;33775;47.992;11.864;2023-07-24T03:15:03;38.02;34.69;39.70;;
46749;Laerm;33775;47.992;11.864;2023-07-24T03:17:29;37.57;32.35;39.70;;
46749;Laerm;33775;47.992;11.864;2023-07-24T03:19:54;37.27;31.68;39.46;;
46749;Laerm;33775;47.992;11.864;2023-07-24T03:22:20;37.01;30.89;39.46;;
46749;Laerm;33775;47.992;11.864;2023-07-24T03:24:45;37.13;32.93;39.81;;
46749;Laerm;33775;47.992;11.864;2023-07-24T03:27:10;37.31;32.35;39.81;;
46749;Laerm;33775;47.992;11.864;2023-07-24T03:29:35;37.34;32.93;40.23;;
46749;Laerm;33775;47.992;11.864;2023-07-24T03:32:02;37.37;33.44;40.43;;
46749;Laerm;33775;47.992;11.864;2023-07-24T03:34:27;37.30;32.93;40.23;;
46749;Laerm;33775;47.992;11.864;2023-07-24T03:36:52;37.33;33.44;39.81;;
46749;Laerm;33775;47.992;11.864;2023-07-24T03:39:17;37.35;32.93;39.92;;
46749;Laerm;33775;47.992;11.864;2023-07-24T03:41:43;37.36;32.35;40.13;;
46749;Laerm;33775;47.992;11.864;2023-07-24T03:44:08;37.35;31.68;40.03;;
46749;Laerm;33775;47.992;11.864;2023-07-24T03:46:33;37.39;32.35;40.13;;
46749;Laerm;33775;47.992;11.864;2023-07-24T03:48:58;37.36;32.35;40.03;;
46749;Laerm;33775;47.992;11.864;2023-07-24T03:51:23;37.33;31.68;40.13;;
46749;Laerm;33775;47.992;11.864;2023-07-24T03:53:49;37.35;32.35;39.92;;
46749;Laerm;33775;47.992;11.864;2023-07-24T03:56:14;37.35;33.44;39.92;;
46749;Laerm;33775;47.992;11.864;2023-07-24T03:58:39;37.34;32.93;39.92;;
46749;Laerm;33775;47.992;11.864;2023-07-24T04:01:05;37.37;33.44;39.81;;
46749;Laerm;33775;47.992;11.864;2023-07-24T04:03:30;37.37;33.44;40.03;;
46749;Laerm;33775;47.992;11.864;2023-07-24T04:05:55;37.35;32.93;39.92;;
46749;Laerm;33775;47.992;11.864;2023-07-24T04:08:20;37.35;32.93;40.13;;
46749;Laerm;33775;47.992;11.864;2023-07-24T04:10:45;37.30;30.89;40.18;;
46749;Laerm;33775;47.992;11.864;2023-07-24T04:13:11;37.28;33.44;40.03;;
46749;Laerm;33775;47.992;11.864;2023-07-24T04:15:36;37.29;32.93;39.81;;
46749;Laerm;33775;47.992;11.864;2023-07-24T04:18:01;37.28;32.93;40.23;;
46749;Laerm;33775;47.992;11.864;2023-07-24T04:20:27;37.30;32.35;40.03;;
46749;Laerm;33775;47.992;11.864;2023-07-24T04:22:52;37.30;33.44;40.43;;
46749;Laerm;33775;47.992;11.864;2023-07-24T04:25:17;37.25;32.35;40.23;;
46749;Laerm;33775;47.992;11.864;2023-07-24T04:27:42;37.14;31.68;40.33;;
46749;Laerm;33775;47.992;11.864;2023-07-24T04:30:08;37.12;32.93;39.81;;
46749;Laerm;33775;47.992;11.864;2023-07-24T04:32:33;37.21;32.93;39.92;;
46749;Laerm;33775;47.992;11.864;2023-07-24T04:34:58;37.24;33.44;40.08;;
46749;Laerm;33775;47.992;11.864;2023-07-24T04:37:24;37.25;32.93;39.92;;
46749;Laerm;33775;47.992;11.864;2023-07-24T04:39:49;37.28;33.44;40.33;;
46749;Laerm;33775;47.992;11.864;2023-07-24T04:42:14;37.28;32.35;40.13;;
46749;Laerm;33775;47.992;11.864;2023-07-24T04:44:39;37.21;32.93;40.23;;
46749;Laerm;33775;47.992;11.864;2023-07-24T04:47:04;37.20;32.35;40.03;;
46749;Laerm;33775;47.992;11.864;2023-07-24T04:49:29;37.14;32.93;39.58;;
46749;Laerm;33775;47.992;11.864;2023-07-24T04:51:55;37.21;32.93;39.81;;
46749;Laerm;33775;47.992;11.864;2023-07-24T04:54:20;37.22;32.93;39.92;;
46749;Laerm;33775;47.992;11.864;2023-07-24T04:56:45;37.28;32.93;40.03;;
46749;Laerm;33775;47.992;11.864;2023-07-24T04:59:11;37.24;32.93;39.70;;
46749;Laerm;33775;47.992;11.864;2023-07-24T05:01:36;37.22;32.93;39.92;;
46749;Laerm;33775;47.992;11.864;2023-07-24T05:04:01;37.22;32.35;39.70;;
46749;Laerm;33775;47.992;11.864;2023-07-24T05:06:26;37.20;32.93;40.33;;
46749;Laerm;33775;47.992;11.864;2023-07-24T05:08:52;37.19;32.93;39.81;;
46749;Laerm;33775;47.992;11.864;2023-07-24T05:11:17;37.27;32.93;40.03;;
46749;Laerm;33775;47.992;11.864;2023-07-24T05:13:42;37.29;33.44;39.92;;
46749;Laerm;33775;47.992;11.864;2023-07-24T05:16:07;37.31;32.93;40.13;;
46749;Laerm;33775;47.992;11.864;2023-07-24T05:18:33;37.31;31.68;39.92;;
46749;Laerm;33775;47.992;11.864;2023-07-24T05:20:58;37.36;31.33;40.62;;
46749;Laerm;33775;47.992;11.864;2023-07-24T05:23:23;37.37;32.35;40.13;;
46749;Laerm;33775;47.992;11.864;2023-07-24T05:25:55;37.36;32.93;40.23;;
46749;Laerm;33775;47.992;11.864;2023-07-24T05:28:21;37.31;32.35;40.23;;
46749;Laerm;33775;47.992;11.864;2023-07-24T05:30:46;37.29;31.68;40.33;;
46749;Laerm;33775;47.992;11.864;2023-07-24T05:33:11;37.27;31.68;40.03;;
46749;Laerm;33775;47.992;11.864;2023-07-24T05:35:36;37.17;31.68;40.71;;
46749;Laerm;33775;47.992;11.864;2023-07-24T05:38:01;37.20;31.68;40.23;;
46749;Laerm;33775;47.992;11.864;2023-07-24T05:40:27;37.21;32.93;40.23;;
46749;Laerm;33775;47.992;11.864;2023-07-24T05:42:53;37.19;30.89;40.03;;
46749;Laerm;33775;47.992;11.864;2023-07-24T05:45:18;37.17;32.93;39.58;;
46749;Laerm;33775;47.992;11.864;2023-07-24T05:47:43;37.19;31.68;40.03;;
46749;Laerm;33775;47.992;11.864;2023-07-24T05:50:08;37.15;32.35;40.03;;
46749;Laerm;33775;47.992;11.864;2023-07-24T05:52:34;37.09;32.00;40.03;;
46749;Laerm;33775;47.992;11.864;2023-07-24T05:54:59;37.18;33.44;40.23;;
46749;Laerm;33775;47.992;11.864;2023-07-24T05:57:24;37.28;32.35;40.03;;
46749;Laerm;33775;47.992;11.864;2023-07-24T05:59:49;37.36;32.93;39.81;;
46749;Laerm;33775;47.992;11.864;2023-07-24T06:02:16;37.43;32.35;40.03;;
46749;Laerm;33775;47.992;11.864;2023-07-24T06:04:42;37.44;32.93;40.33;;
46749;Laerm;33775;47.992;11.864;2023-07-24T06:07:07;37.46;33.44;40.03;;
46749;Laerm;33775;47.992;11.864;2023-07-24T06:09:32;37.48;32.35;40.33;;
46749;Laerm;33775;47.992;11.864;2023-07-24T06:11:57;37.47;33.44;40.03;;
46749;Laerm;33775;47.992;11.864;2023-07-24T06:14:22;37.50;33.55;40.03;;
46749;Laerm;33775;47.992;11.864;2023-07-24T06:16:47;37.47;33.44;40.23;;
46749;Laerm;33775;47.992;11.864;2023-07-24T06:19:13;37.48;32.93;40.43;;
46749;Laerm;33775;47.992;11.864;2023-07-24T06:21:38;37.41;33.44;40.53;;
46749;Laerm;33775;47.992;11.864;2023-07-24T06:24:03;37.35;32.35;39.81;;
46749;Laerm;33775;47.992;11.864;2023-07-24T06:26:28;37.32;33.44;40.13;;
46749;Laerm;33775;47.992;11.864;2023-07-24T06:28:54;37.30;32.93;39.92;;
46749;Laerm;33775;47.992;11.864;2023-07-24T06:31:19;37.34;33.09;40.23;;
46749;Laerm;33775;47.992;11.864;2023-07-24T06:33:44;37.41;33.90;40.08;;
46749;Laerm;33775;47.992;11.864;2023-07-24T06:36:10;37.44;32.93;40.03;;
46749;Laerm;33775;47.992;11.864;2023-07-24T06:38:35;37.44;33.90;40.23;;
46749;Laerm;33775;47.992;11.864;2023-07-24T06:41:00;37.44;33.55;40.53;;
46749;Laerm;33775;47.992;11.864;2023-07-24T06:43:25;37.49;32.93;40.33;;
46749;Laerm;33775;47.992;11.864;2023-07-24T06:45:51;37.49;32.35;40.13;;
46749;Laerm;33775;47.992;11.864;2023-07-24T06:48:16;37.48;32.35;40.33;;
46749;Laerm;33775;47.992;11.864;2023-07-24T06:50:41;37.49;33.90;40.53;;
46749;Laerm;33775;47.992;11.864;2023-07-24T06:53:06;37.49;31.68;40.03;;
46749;Laerm;33775;47.992;11.864;2023-07-24T06:55:31;37.51;33.44;40.33;;
46749;Laerm;33775;47.992;11.864;2023-07-24T06:57:57;37.46;32.93;40.43;;
46749;Laerm;33775;47.992;11.864;2023-07-24T07:00:22;37.41;32.93;40.53;;
46749;Laerm;33775;47.992;11.864;2023-07-24T07:02:47;37.41;33.44;39.92;;
46749;Laerm;33775;47.992;11.864;2023-07-24T07:05:12;37.40;32.93;40.03;;
46749;Laerm;33775;47.992;11.864;2023-07-24T07:07:37;37.40;33.44;39.92;;
46749;Laerm;33775;47.992;11.864;2023-07-24T07:10:04;37.41;32.35;40.13;;
46749;Laerm;33775;47.992;11.864;2023-07-24T07:12:30;37.36;32.93;39.92;;
46749;Laerm;33775;47.992;11.864;2023-07-24T07:14:55;37.35;32.93;40.23;;
46749;Laerm;33775;47.992;11.864;2023-07-24T07:17:20;37.38;33.44;39.81;;
46749;Laerm;33775;47.992;11.864;2023-07-24T07:19:45;37.44;32.35;40.13;;
46749;Laerm;33775;47.992;11.864;2023-07-24T07:22:10;37.53;33.09;40.13;;
46749;Laerm;33775;47.992;11.864;2023-07-24T07:24:36;37.56;33.90;40.23;;
46749;Laerm;33775;47.992;11.864;2023-07-24T07:27:01;37.58;32.93;40.23;;
46749;Laerm;33775;47.992;11.864;2023-07-24T07:29:26;37.57;33.44;40.53;;
46749;Laerm;33775;47.992;11.864;2023-07-24T07:31:51;37.53;33.90;40.43;;
46749;Laerm;33775;47.992;11.864;2023-07-24T07:34:16;37.54;32.93;39.92;;
46749;Laerm;33775;47.992;11.864;2023-07-24T07:36:42;37.53;33.44;40.33;;
46749;Laerm;33775;47.992;11.864;2023-07-24T07:39:07;37.53;32.93;40.33;;
46749;Laerm;33775;47.992;11.864;2023-07-24T07:41:32;37.50;32.93;40.03;;
46749;Laerm;33775;47.992;11.864;2023-07-24T07:43:57;37.48;32.93;40.13;;
46749;Laerm;33775;47.992;11.864;2023-07-24T07:46:23;37.51;32.35;40.33;;
46749;Laerm;33775;47.992;11.864;2023-07-24T07:48:48;37.45;33.44;40.33;;
46749;Laerm;33775;47.992;11.864;2023-07-24T07:51:14;37.44;33.44;40.23;;
46749;Laerm;33775;47.992;11.864;2023-07-24T07:53:39;37.45;33.44;40.33;;
46749;Laerm;33775;47.992;11.864;2023-07-24T07:56:05;37.42;32.93;40.08;;
46749;Laerm;33775;47.992;11.864;2023-07-24T07:58:30;37.41;31.68;40.33;;
46749;Laerm;33775;47.992;11.864;2023-07-24T08:00:55;37.39;32.93;40.23;;
46749;Laerm;33775;47.992;11.864;2023-07-24T08:03:20;37.39;32.93;39.92;;
46749;Laerm;33775;47.992;11.864;2023-07-24T08:05:46;37.45;33.90;40.43;;
46749;Laerm;33775;47.992;11.864;2023-07-24T08:08:11;37.48;32.93;40.13;;
46749;Laerm;33775;47.992;11.864;2023-07-24T08:10:37;37.48;32.93;40.13;;
46749;Laerm;33775;47.992;11.864;2023-07-24T08:13:04;37.46;32.93;40.13;;
46749;Laerm;33775;47.992;11.864;2023-07-24T08:15:29;37.50;32.93;40.03;;
46749;Laerm;33775;47.992;11.864;2023-07-24T08:17:54;37.50;33.44;40.03;;
46749;Laerm;33775;47.992;11.864;2023-07-24T08:20:19;37.52;32.35;40.62;;
46749;Laerm;33775;47.992;11.864;2023-07-24T08:22:44;37.52;33.44;40.13;;
46749;Laerm;33775;47.992;11.864;2023-07-24T08:25:09;37.51;32.93;40.13;;
46749;Laerm;33775;47.992;11.864;2023-07-24T08:27:35;37.52;31.68;40.33;;
46749;Laerm;33775;47.992;11.864;2023-07-24T08:30:00;37.50;33.44;40.43;;
46749;Laerm;33775;47.992;11.864;2023-07-24T08:32:25;37.49;33.90;40.23;;
46749;Laerm;33775;47.992;11.864;2023-07-24T08:34:50;37.49;30.89;40.13;;
46749;Laerm;33775;47.992;11.864;2023-07-24T08:37:15;37.52;33.90;40.23;;
46749;Laerm;33775;47.992;11.864;2023-07-24T08:39:40;37.49;32.35;40.13;;
46749;Laerm;33775;47.992;11.864;2023-07-24T08:42:12;37.53;32.93;40.03;;
46749;Laerm;33775;47.992;11.864;2023-07-24T08:44:37;37.50;33.44;40.62;;
46749;Laerm;33775;47.992;11.864;2023-07-24T08:47:03;37.51;33.90;40.23;;
46749;Laerm;33775;47.992;11.864;2023-07-24T08:49:29;37.52;33.90;40.33;;
46749;Laerm;33775;47.992;11.864;2023-07-24T08:51:54;37.51;32.93;40.13;;
46749;Laerm;33775;47.992;11.864;2023-07-24T08:54:20;37.50;32.35;40.53;;
46749;Laerm;33775;47.992;11.864;2023-07-24T08:56:45;37.50;32.35;39.81;;
46749;Laerm;33775;47.992;11.864;2023-07-24T08:59:14;37.51;32.35;40.53;;
46749;Laerm;33775;47.992;11.864;2023-07-24T09:01:39;37.52;32.35;40.03;;
46749;Laerm;33775;47.992;11.864;2023-07-24T09:04:04;37.50;33.90;40.33;;
46749;Laerm;33775;47.992;11.864;2023-07-24T09:06:30;37.50;33.44;40.13;;
46749;Laerm;33775;47.992;11.864;2023-07-24T09:08:55;37.50;33.90;40.33;;
46749;Laerm;33775;47.992;11.864;2023-07-24T09:11:20;37.50;33.44;40.33;;
46749;Laerm;33775;47.992;11.864;2023-07-24T09:13:46;37.49;33.90;40.23;;
46749;Laerm;33775;47.992;11.864;2023-07-24T09:16:21;37.50;32.35;40.62;;
46749;Laerm;33775;47.992;11.864;2023-07-24T09:18:47;37.52;32.93;40.53;;
46749;Laerm;33775;47.992;11.864;2023-07-24T09:21:12;37.49;33.44;40.62;;
46749;Laerm;33775;47.992;11.864;2023-07-24T09:23:37;37.52;33.44;40.43;;
46749;Laerm;33775;47.992;11.864;2023-07-24T09:26:06;37.52;32.58;40.33;;
46749;Laerm;33775;47.992;11.864;2023-07-24T09:28:32;37.48;32.93;40.13;;
46749;Laerm;33775;47.992;11.864;2023-07-24T09:30:58;37.49;33.44;40.43;;
46749;Laerm;33775;47.992;11.864;2023-07-24T09:36:00;37.51;33.44;40.03;;
46749;Laerm;33775;47.992;11.864;2023-07-24T09:38:25;37.51;32.93;40.13;;
46749;Laerm;33775;47.992;11.864;2023-07-24T09:40:52;37.52;33.44;40.13;;
46749;Laerm;33775;47.992;11.864;2023-07-24T09:43:21;37.53;33.44;40.33;;
46749;Laerm;33775;47.992;11.864;2023-07-24T09:45:47;37.56;32.93;40.23;;
46749;Laerm;33775;47.992;11.864;2023-07-24T09:48:13;37.56;33.44;40.33;;
46749;Laerm;33775;47.992;11.864;2023-07-24T09:50:40;37.55;32.35;40.13;;
46749;Laerm;33775;47.992;11.864;2023-07-24T09:53:05;37.54;32.35;40.13;;
46749;Laerm;33775;47.992;11.864;2023-07-24T09:55:33;37.52;33.44;40.33;;
46749;Laerm;33775;47.992;11.864;2023-07-24T09:58:00;37.50;32.35;40.23;;
46749;Laerm;33775;47.992;11.864;2023-07-24T10:00:25;37.53;33.44;40.43;;
46749;Laerm;33775;47.992;11.864;2023-07-24T10:02:50;37.50;32.93;40.23;;
46749;Laerm;33775;47.992;11.864;2023-07-24T10:05:16;37.50;32.35;40.13;;
46749;Laerm;33775;47.992;11.864;2023-07-24T10:07:42;37.49;32.93;40.53;;
46749;Laerm;33775;47.992;11.864;2023-07-24T10:10:07;37.48;29.92;40.53;;
46749;Laerm;33775;47.992;11.864;2023-07-24T10:12:33;37.44;30.89;40.23;;
46749;Laerm;33775;47.992;11.864;2023-07-24T10:14:59;37.45;32.35;40.23;;
46749;Laerm;33775;47.992;11.864;2023-07-24T10:20:19;37.46;32.93;40.43;;
46749;Laerm;33775;47.992;11.864;2023-07-24T10:22:44;37.45;33.44;40.23;;
46749;Laerm;33775;47.992;11.864;2023-07-24T10:25:10;37.48;32.35;40.53;;
46749;Laerm;33775;47.992;11.864;2023-07-24T10:27:35;37.46;31.68;40.03;;
46749;Laerm;33775;47.992;11.864;2023-07-24T10:30:02;37.53;33.44;40.53;;
46749;Laerm;33775;47.992;11.864;2023-07-24T10:32:27;37.47;32.93;40.33;;
46749;Laerm;33775;47.992;11.864;2023-07-24T10:35:00;37.45;32.93;40.03;;
46749;Laerm;33775;47.992;11.864;2023-07-24T10:37:31;37.44;31.68;40.23;;
46749;Laerm;33775;47.992;11.864;2023-07-24T10:39:57;37.45;30.89;40.23;;
46749;Laerm;33775;47.992;11.864;2023-07-24T10:42:22;37.45;31.68;40.62;;
46749;Laerm;33775;47.992;11.864;2023-07-24T10:44:47;37.45;33.44;40.33;;
46749;Laerm;33775;47.992;11.864;2023-07-24T10:47:12;37.46;32.35;40.80;;
46749;Laerm;33775;47.992;11.864;2023-07-24T10:49:38;37.44;32.35;40.43;;
46749;Laerm;33775;47.992;11.864;2023-07-24T10:52:07;37.43;32.93;40.23;;
46749;Laerm;33775;47.992;11.864;2023-07-24T10:54:33;37.46;32.93;40.33;;
46749;Laerm;33775;47.992;11.864;2023-07-24T10:56:59;37.46;32.35;40.33;;
46749;Laerm;33775;47.992;11.864;2023-07-24T10:59:35;37.43;32.93;40.33;;
46749;Laerm;33775;47.992;11.864;2023-07-24T11:02:00;37.43;32.35;40.23;;
46749;Laerm;33775;47.992;11.864;2023-07-24T11:04:28;37.45;32.58;40.33;;
46749;Laerm;33775;47.992;11.864;2023-07-24T11:06:54;37.43;32.93;40.33;;
46749;Laerm;33775;47.992;11.864;2023-07-24T11:09:22;37.45;32.93;40.23;;
46749;Laerm;33775;47.992;11.864;2023-07-24T11:11:47;37.46;32.58;40.53;;
46749;Laerm;33775;47.992;11.864;2023-07-24T11:14:13;37.51;32.35;40.13;;
46749;Laerm;33775;47.992;11.864;2023-07-24T11:16:47;37.49;31.68;40.43;;
46749;Laerm;33775;47.992;11.864;2023-07-24T11:19:12;37.49;32.93;40.43;;
46749;Laerm;33775;47.992;11.864;2023-07-24T11:21:37;37.48;32.93;40.13;;
46749;Laerm;33775;47.992;11.864;2023-07-24T11:24:06;37.43;32.35;40.23;;
46749;Laerm;33775;47.992;11.864;2023-07-24T11:26:32;37.42;32.35;40.13;;
46749;Laerm;33775;47.992;11.864;2023-07-24T11:28:58;37.35;29.92;40.13;;
46749;Laerm;33775;47.992;11.864;2023-07-24T11:31:24;37.34;32.35;40.43;;
46749;Laerm;33775;47.992;11.864;2023-07-24T11:33:49;37.32;32.93;40.43;;
46749;Laerm;33775;47.992;11.864;2023-07-24T11:36:15;37.35;32.93;40.33;;
46749;Laerm;33775;47.992;11.864;2023-07-24T11:38:40;37.39;32.93;40.23;;
46749;Laerm;33775;47.992;11.864;2023-07-24T11:41:05;37.37;31.68;40.62;;
46749;Laerm;33775;47.992;11.864;2023-07-24T11:43:32;37.36;32.35;40.23;;
46749;Laerm;33775;47.992;11.864;2023-07-24T11:45:58;37.38;33.09;40.53;;
46749;Laerm;33775;47.992;11.864;2023-07-24T11:48:23;37.39;32.93;40.13;;
46749;Laerm;33775;47.992;11.864;2023-07-24T11:50:50;37.40;33.44;39.92;;
46749;Laerm;33775;47.992;11.864;2023-07-24T11:55:50;37.36;30.89;40.03;;
46749;Laerm;33775;47.992;11.864;2023-07-24T11:58:16;37.36;32.35;40.33;;
46749;Laerm;33775;47.992;11.864;2023-07-24T12:00:41;37.37;31.68;40.62;;
46749;Laerm;33775;47.992;11.864;2023-07-24T12:03:07;37.37;31.68;40.03;;
46749;Laerm;33775;47.992;11.864;2023-07-24T12:05:40;37.40;32.35;40.03;;
46749;Laerm;33775;47.992;11.864;2023-07-24T12:08:05;37.38;32.93;40.53;;
46749;Laerm;33775;47.992;11.864;2023-07-24T12:10:30;37.32;32.35;40.23;;
46749;Laerm;33775;47.992;11.864;2023-07-24T12:12:58;37.33;32.93;40.33;;
46749;Laerm;33775;47.992;11.864;2023-07-24T12:15:24;37.37;32.35;40.13;;
46749;Laerm;33775;47.992;11.864;2023-07-24T12:17:49;37.36;32.93;40.23;;
46749;Laerm;33775;47.992;11.864;2023-07-24T12:20:14;37.40;32.35;40.53;;
46749;Laerm;33775;47.992;11.864;2023-07-24T12:22:40;37.38;31.68;40.62;;
46749;Laerm;33775;47.992;11.864;2023-07-24T12:25:06;37.40;32.35;40.62;;
46749;Laerm;33775;47.992;11.864;2023-07-24T12:27:31;37.43;32.35;39.92;;
46749;Laerm;33775;47.992;11.864;2023-07-24T12:29:56;37.36;30.89;40.33;;
46749;Laerm;33775;47.992;11.864;2023-07-24T12:32:22;37.36;32.35;40.13;;
46749;Laerm;33775;47.992;11.864;2023-07-24T12:34:48;37.34;31.68;40.23;;
46749;Laerm;33775;47.992;11.864;2023-07-24T12:37:14;37.36;30.89;40.33;;
46749;Laerm;33775;47.992;11.864;2023-07-24T12:39:39;37.35;32.35;40.53;;
46749;Laerm;33775;47.992;11.864;2023-07-24T12:42:04;37.33;32.93;40.23;;
46749;Laerm;33775;47.992;11.864;2023-07-24T12:44:30;37.34;32.35;40.23;;
46749;Laerm;33775;47.992;11.864;2023-07-24T12:46:55;37.34;31.68;40.13;;
46749;Laerm;33775;47.992;11.864;2023-07-24T12:49:20;37.35;32.93;40.13;;
46749;Laerm;33775;47.992;11.864;2023-07-24T12:51:45;37.36;32.93;40.33;;
46749;Laerm;33775;47.992;11.864;2023-07-24T12:54:10;37.34;31.68;40.13;;
46749;Laerm;33775;47.992;11.864;2023-07-24T12:56:36;37.37;32.93;40.03;;
46749;Laerm;33775;47.992;11.864;2023-07-24T12:59:01;37.44;32.93;40.23;;
46749;Laerm;33775;47.992;11.864;2023-07-24T13:01:26;37.58;32.93;40.13;;
46749;Laerm;33775;47.992;11.864;2023-07-24T13:03:53;37.68;33.90;40.43;;
46749;Laerm;33775;47.992;11.864;2023-07-24T13:06:18;37.59;33.90;40.13;;
46749;Laerm;33775;47.992;11.864;2023-07-24T13:08:44;37.53;33.44;40.33;;
46749;Laerm;33775;47.992;11.864;2023-07-24T13:11:09;37.52;32.93;40.23;;
46749;Laerm;33775;47.992;11.864;2023-07-24T13:13:34;37.55;33.44;40.13;;
46749;Laerm;33775;47.992;11.864;2023-07-24T13:16:01;37.53;33.44;40.23;;
46749;Laerm;33775;47.992;11.864;2023-07-24T13:18:26;37.50;33.90;40.43;;
46749;Laerm;33775;47.992;11.864;2023-07-24T13:20:51;37.44;33.44;40.33;;
46749;Laerm;33775;47.992;11.864;2023-07-24T13:23:17;37.36;32.35;39.81;;
46749;Laerm;33775;47.992;11.864;2023-07-24T13:25:42;37.30;31.68;39.81;;
46749;Laerm;33775;47.992;11.864;2023-07-24T13:28:07;37.29;32.35;40.23;;
46749;Laerm;33775;47.992;11.864;2023-07-24T13:30:32;37.20;32.35;39.92;;
46749;Laerm;33775;47.992;11.864;2023-07-24T13:32:58;37.12;30.89;39.92;;